FW0538 Weather Reports


Display with metric or nautical units.
time (UTC)temp
F
wind
direction
speed
MPH
gust
MPH
rain 1hr
in
rain 24hr
in
rain mn
in
humidity
%
barometer
mb
20240519041541 63 258 6.0 14.0 0.00 0.00 0.00 39 1007.9
20240519040042 63 263 7.0 14.0 0.00 0.00 0.00 38 1007.7
20240519034541 64 295 6.0 14.0 0.00 0.00 0.00 37 1007.5
20240519033051 65 255 9.0 13.0 0.00 0.00 0.00 38 1007.5
20240519031539 66 279 6.0 12.0 0.00 0.00 0.00 36 1007.3
20240519030042 67 270 9.0 13.0 0.00 0.00 0.00 34 1007.1
20240519024537 68 278 7.0 11.0 0.00 0.00 0.00 31 1006.9
20240519023036 69 309 8.0 19.0 0.00 0.00 0.00 26 1006.7
20240519021542 69 306 13.0 20.0 0.00 0.00 0.00 25 1006.2
20240519020039 70 291 13.0 21.0 0.00 0.00 0.00 21 1006.2
20240519014534 71 288 14.0 22.0 0.00 0.00 0.00 20 1006.0
20240519013039 72 309 15.0 22.0 0.00 0.00 0.00 19 1005.8
20240519011535 73 319 14.0 26.0 0.00 0.00 0.00 26 1005.5
20240519010032 74 319 13.0 22.0 0.00 0.00 0.00 27 1005.3
20240519004530 74 302 15.0 20.0 0.00 0.00 0.00 24 1005.2
20240519003030 76 308 12.0 24.0 0.00 0.00 0.00 24 1005.5
20240519001530 75 321 14.0 25.0 0.00 0.00 0.00 20 1005.4
20240519000029 76 316 12.0 24.0 0.00 0.00 0.00 18 1005.4
20240518234532 76 316 13.0 24.0 0.00 0.00 0.00 16 1005.4
20240518233025 76 309 14.0 25.0 0.00 0.00 0.00 22 1005.3
20240518231525 76 311 16.0 22.0 0.00 0.00 0.00 23 1005.3
20240518230023 77 323 12.0 21.0 0.00 0.00 0.00 21 1005.4
20240518224524 77 304 16.0 25.0 0.00 0.00 0.00 23 1005.4
20240518223020 78 308 9.0 20.0 0.00 0.00 0.00 24 1005.4
20240518221520 76 308 12.0 23.0 0.00 0.00 0.00 25 1005.4
20240518220019 76 325 13.0 23.0 0.00 0.00 0.00 23 1005.6
20240518214521 77 312 12.0 20.0 0.00 0.00 0.00 23 1005.7
20240518213016 74 301 6.0 17.0 0.00 0.00 0.00 27 1005.8
20240518211515 75 321 7.0 11.0 0.00 0.00 0.00 27 1006.0
20240518210014 75 322 9.0 15.0 0.00 0.00 0.00 27 1006.2
20240518204513 76 358 5.0 14.0 0.00 0.00 0.00 25 1006.5
20240518203010 75 65 1.0 6.0 0.00 0.00 0.00 25 1006.5
20240518201509 77 298 7.0 14.0 0.00 0.00 0.00 28 1006.7
20240518200008 77 226 5.0 9.0 0.00 0.00 0.00 27 1006.8
20240518194509 75 259 6.0 10.0 0.00 0.00 0.00 25 1007.0
20240518193002 74 295 0.0 6.0 0.00 0.00 0.00 27 1007.5
20240518191501 74 63 4.0 9.0 0.00 0.00 0.00 28 1007.7
20240518190112 75 47 3.0 6.0 0.00 0.00 0.00 25 1007.9
20240518184556 73 162 2.0 6.0 0.00 0.00 0.00 27 1008.2
20240518183103 73 114 0.0 7.0 0.00 0.00 0.00 28 1008.4
20240518181608 72 193 6.0 10.0 0.00 0.00 0.00 27 1008.5
20240518180056 72 212 4.0 8.0 0.00 0.00 0.00 30 1008.6
20240518174550 71 139 4.0 9.0 0.00 0.00 0.00 27 1008.8
20240518173053 70 179 2.0 10.0 0.00 0.00 0.00 30 1009.0
20240518171547 69 158 1.0 6.0 0.00 0.00 0.00 30 1009.2
20240518170043 68 101 1.0 5.0 0.00 0.00 0.00 36 1009.2
20240518164539 67 188 2.0 5.0 0.00 0.00 0.00 35 1009.2
20240518163039 66 110 1.0 6.0 0.00 0.00 0.00 40 1009.4
20240518161540 65 113 1.0 3.0 0.00 0.00 0.00 45 1009.5
20240518160036 63 212 2.0 5.0 0.00 0.00 0.00 44 1009.7
20240518154531 63 122 1.0 4.0 0.00 0.00 0.00 47 1009.7
20240518153036 63 160 3.0 5.0 0.00 0.00 0.00 43 1009.7
20240518151535 63 154 0.0 3.0 0.00 0.00 0.00 44 1009.8
20240518150026 62 155 1.0 3.0 0.00 0.00 0.00 39 1009.8
20240518144522 59 6 0.0 1.0 0.00 0.00 0.00 46 1009.8
20240518143020 56 6 0.0 2.0 0.00 0.00 0.00 51 1009.8
20240518141518 54 6 0.0 4.0 0.00 0.00 0.00 56 1009.8
20240518140018 51 11 2.0 5.0 0.00 0.00 0.00 60 1009.8
20240518134516 48 342 1.0 4.0 0.00 0.00 0.00 63 1009.7
20240518133024 48 335 2.0 4.0 0.00 0.00 0.00 65 1009.6
20240518131516 46 6 2.0 4.0 0.00 0.00 0.00 70 1009.6
20240518130015 48 342 2.0 4.0 0.00 0.00 0.00 61 1009.4
20240518124507 50 18 2.0 4.0 0.00 0.00 0.00 53 1009.3
20240518123007 51 360 2.0 3.0 0.00 0.00 0.00 50 1009.2
20240518121508 51 25 1.0 3.0 0.00 0.00 0.00 49 1009.2
20240518120005 50 34 3.0 4.0 0.00 0.00 0.00 54 1009.2
20240518114504 50 32 3.0 4.0 0.00 0.00 0.00 56 1009.1
20240518113007 51 21 3.0 6.0 0.00 0.00 0.00 50 1009.0
20240518111559 50 280 3.0 6.0 0.00 0.00 0.00 56 1009.0
20240518110056 51 27 3.0 7.0 0.00 0.00 0.00 57 1008.9
20240518104653 52 345 3.0 7.0 0.00 0.00 0.00 54 1008.7
20240518103052 51 352 2.0 5.0 0.00 0.00 0.00 54 1008.6
20240518101559 51 21 2.0 6.0 0.00 0.00 0.00 55 1008.6
20240518100105 52 352 3.0 5.0 0.00 0.00 0.00 54 1008.6
20240518094549 53 33 3.0 4.0 0.00 0.00 0.00 53 1008.6
20240518093044 53 43 1.0 6.0 0.00 0.00 0.00 53 1008.5
20240518091542 54 27 4.0 6.0 0.00 0.00 0.00 52 1008.6
20240518090041 54 340 4.0 5.0 0.00 0.00 0.00 52 1008.6
20240518084538 54 320 2.0 6.0 0.00 0.00 0.00 55 1008.7
20240518083038 55 46 3.0 6.0 0.00 0.00 0.00 46 1008.8
20240518081536 54 343 3.0 6.0 0.00 0.00 0.00 52 1008.8
20240518080032 56 358 4.0 7.0 0.00 0.00 0.00 49 1008.7
20240518074531 56 332 3.0 6.0 0.00 0.00 0.00 47 1008.5
20240518073027 56 340 2.0 5.0 0.00 0.00 0.00 47 1008.5
20240518071525 56 17 1.0 4.0 0.00 0.00 0.00 45 1008.4
20240518070021 59 360 3.0 6.0 0.00 0.00 0.00 44 1008.2
20240518064522 59 338 6.0 8.0 0.00 0.00 0.00 41 1008.2
20240518063019 59 324 5.0 7.0 0.00 0.00 0.00 45 1008.1
20240518061534 60 326 2.0 7.0 0.00 0.00 0.00 46 1008.1
20240518060019 61 333 6.0 8.0 0.00 0.00 0.00 49 1008.2
20240518054519 61 318 3.0 7.0 0.00 0.00 0.00 52 1008.2
20240518053018 61 312 5.0 7.0 0.00 0.00 0.00 53 1008.1
20240518051518 62 347 2.0 3.0 0.00 0.00 0.00 52 1008.0
20240518050019 63 17 0.0 4.0 0.00 0.00 0.00 49 1008.0
20240518044516 64 342 2.0 6.0 0.00 0.00 0.00 49 1007.6
20240518043015 65 345 3.0 10.0 0.00 0.00 0.00 47 1007.4